Time,TemperatureF,DewpointF,PressureIn,WindDirection,WindDirectionDegrees,WindSpeedMPH,WindSpeedGustMPH,Humidity,HourlyPrecipIn,Conditions,Clouds,dailyrainin,SolarRadiationWatts/m^2,SoftwareType,DateUTC
2013-10-29 00:04:00,44.0,37.0,-100.00,ENE,71,7.0,14.0,76,0.00,,,0.00,0.000000,,2013-10-29 05:04:00,
2013-10-29 00:45:00,42.0,36.0,-100.00,ENE,69,6.0,14.0,80,0.00,,,0.00,0.000000,,2013-10-29 05:45:00,
2013-10-29 00:52:00,42.0,36.0,-100.00,ENE,69,6.0,14.0,80,0.00,,,0.00,0.000000,,2013-10-29 05:52:00,
2013-10-29 01:06:00,42.0,36.0,-100.00,ENE,69,6.0,14.0,80,0.00,,,0.00,0.000000,,2013-10-29 06:06:00,
2013-10-29 01:44:00,41.0,36.0,-100.00,East,80,8.0,12.0,83,0.00,,,0.00,0.000000,,2013-10-29 06:44:00,
2013-10-29 01:53:00,41.0,36.0,-100.00,East,80,8.0,12.0,83,0.00,,,0.00,0.000000,,2013-10-29 06:53:00,
2013-10-29 02:01:00,41.0,36.0,-100.00,East,80,8.0,12.0,83,0.00,,,0.00,0.000000,,2013-10-29 07:01:00,
2013-10-29 02:44:00,41.0,37.0,-100.00,East,82,9.0,14.0,84,0.00,,,0.00,0.000000,,2013-10-29 07:44:00,
2013-10-29 02:55:00,41.0,37.0,-100.00,East,82,9.0,14.0,84,0.00,,,0.00,0.000000,,2013-10-29 07:55:00,
2013-10-29 03:05:00,41.0,37.0,-100.00,East,82,9.0,14.0,84,0.00,,,0.00,0.000000,,2013-10-29 08:05:00,
2013-10-29 03:42:00,42.0,38.0,-100.00,East,86,9.0,18.0,84,0.00,,,0.00,0.000000,,2013-10-29 08:42:00,
2013-10-29 03:52:00,42.0,38.0,-100.00,East,86,9.0,18.0,84,0.00,,,0.00,0.000000,,2013-10-29 08:52:00,
2013-10-29 04:02:00,42.0,38.0,-100.00,East,86,9.0,18.0,84,0.00,,,0.00,0.000000,,2013-10-29 09:02:00,
2013-10-29 04:43:00,42.0,38.0,-100.00,East,87,9.0,17.0,85,0.00,,,0.00,0.000000,,2013-10-29 09:43:00,
2013-10-29 04:53:00,42.0,38.0,-100.00,East,87,9.0,17.0,85,0.00,,,0.00,0.000000,,2013-10-29 09:53:00,
2013-10-29 05:03:00,42.0,38.0,-100.00,East,87,9.0,17.0,85,0.00,,,0.00,0.000000,,2013-10-29 10:03:00,
2013-10-29 05:42:00,42.0,38.0,-100.00,East,84,8.0,16.0,85,0.00,,,0.00,0.000000,,2013-10-29 10:42:00,
2013-10-29 05:53:00,42.0,38.0,-100.00,East,84,8.0,16.0,85,0.00,,,0.00,0.000000,,2013-10-29 10:53:00,
2013-10-29 06:03:00,42.0,38.0,-100.00,East,84,8.0,16.0,85,0.00,,,0.00,0.000000,,2013-10-29 11:03:00,
2013-10-29 06:42:00,42.0,38.0,-100.00,East,87,8.0,15.0,86,0.00,,,0.00,0.000000,,2013-10-29 11:42:00,
2013-10-29 06:52:00,42.0,38.0,-100.00,East,87,8.0,15.0,86,0.00,,,0.00,0.000000,,2013-10-29 11:52:00,
2013-10-29 07:01:00,42.0,38.0,-100.00,East,87,8.0,15.0,86,0.00,,,0.00,0.000000,,2013-10-29 12:01:00,
2013-10-29 07:42:00,42.0,38.0,-100.00,East,85,7.0,15.0,86,0.00,,,0.00,0.000000,,2013-10-29 12:42:00,
2013-10-29 07:52:00,42.0,38.0,-100.00,East,85,7.0,15.0,86,0.00,,,0.00,0.000000,,2013-10-29 12:52:00,
2013-10-29 08:02:00,42.0,38.0,-100.00,East,85,7.0,15.0,86,0.00,,,0.00,0.000000,,2013-10-29 13:02:00,
2013-10-29 08:42:00,42.0,39.0,-100.00,East,87,8.0,13.0,88,0.00,,,0.00,1.000000,,2013-10-29 13:42:00,
2013-10-29 08:52:00,42.0,39.0,-100.00,East,87,8.0,13.0,88,0.00,,,0.00,1.000000,,2013-10-29 13:52:00,
2013-10-29 09:02:00,42.0,39.0,-100.00,East,87,8.0,13.0,88,0.00,,,0.00,1.000000,,2013-10-29 14:02:00,
2013-10-29 09:42:00,42.0,39.0,-100.00,East,95,8.0,17.0,89,0.00,,,0.00,20.000000,,2013-10-29 14:42:00,
2013-10-29 09:52:00,42.0,39.0,-100.00,East,95,8.0,17.0,89,0.00,,,0.00,20.000000,,2013-10-29 14:52:00,
2013-10-29 10:02:00,42.0,39.0,-100.00,East,95,8.0,17.0,89,0.00,,,0.00,20.000000,,2013-10-29 15:02:00,
2013-10-29 10:44:00,45.0,40.0,-100.00,ESE,104,7.0,14.0,84,0.00,,,0.00,73.000000,,2013-10-29 15:44:00,
2013-10-29 10:54:00,45.0,40.0,-100.00,ESE,104,7.0,14.0,84,0.00,,,0.00,73.000000,,2013-10-29 15:54:00,
2013-10-29 11:03:00,45.0,40.0,-100.00,ESE,104,7.0,14.0,84,0.00,,,0.00,73.000000,,2013-10-29 16:03:00,
2013-10-29 11:43:00,49.0,42.0,-100.00,East,97,7.0,15.0,77,0.00,,,0.00,155.000000,,2013-10-29 16:43:00,
2013-10-29 11:53:00,49.0,42.0,-100.00,East,97,7.0,15.0,77,0.00,,,0.00,155.000000,,2013-10-29 16:53:00,
2013-10-29 12:02:00,49.0,42.0,-100.00,East,97,7.0,15.0,77,0.00,,,0.00,155.000000,,2013-10-29 17:02:00,
2013-10-29 12:42:00,50.0,43.0,-100.00,ESE,104,5.0,12.0,77,0.00,,,0.00,113.000000,,2013-10-29 17:42:00,
2013-10-29 12:52:00,50.0,43.0,-100.00,ESE,104,5.0,12.0,77,0.00,,,0.00,113.000000,,2013-10-29 17:52:00,
2013-10-29 13:02:00,50.0,43.0,-100.00,ESE,104,5.0,12.0,77,0.00,,,0.00,113.000000,,2013-10-29 18:02:00,
2013-10-29 13:42:00,53.0,45.0,-100.00,ESE,111,6.0,11.0,73,0.00,,,0.00,171.000000,,2013-10-29 18:42:00,
2013-10-29 13:52:00,53.0,45.0,-100.00,ESE,111,6.0,11.0,73,0.00,,,0.00,171.000000,,2013-10-29 18:52:00,
2013-10-29 14:02:00,53.0,45.0,-100.00,ESE,111,6.0,11.0,73,0.00,,,0.00,171.000000,,2013-10-29 19:02:00,
2013-10-29 14:42:00,55.0,46.0,-100.00,ESE,103,7.0,14.0,71,0.00,,,0.00,231.000000,,2013-10-29 19:42:00,
2013-10-29 14:53:00,55.0,46.0,-100.00,ESE,103,7.0,14.0,71,0.00,,,0.00,231.000000,,2013-10-29 19:53:00,
2013-10-29 15:02:00,55.0,46.0,-100.00,ESE,103,7.0,14.0,71,0.00,,,0.00,231.000000,,2013-10-29 20:02:00,
2013-10-29 15:43:00,55.0,47.0,-100.00,ESE,113,5.0,15.0,73,0.00,,,0.00,139.000000,,2013-10-29 20:43:00,
2013-10-29 15:52:00,55.0,47.0,-100.00,ESE,113,5.0,15.0,73,0.00,,,0.00,139.000000,,2013-10-29 20:52:00,
2013-10-29 16:01:00,55.0,47.0,-100.00,ESE,113,5.0,15.0,73,0.00,,,0.00,139.000000,,2013-10-29 21:01:00,
2013-10-29 16:43:00,56.0,47.0,-100.00,East,95,7.0,13.0,71,0.00,,,0.00,89.000000,,2013-10-29 21:43:00,
2013-10-29 16:54:00,56.0,47.0,-100.00,East,95,7.0,13.0,71,0.00,,,0.00,89.000000,,2013-10-29 21:54:00,
2013-10-29 17:04:00,56.0,47.0,-100.00,East,95,7.0,13.0,71,0.00,,,0.00,89.000000,,2013-10-29 22:04:00,
2013-10-29 17:43:00,56.0,47.0,-100.00,East,101,6.0,12.0,73,0.00,,,0.00,52.000000,,2013-10-29 22:43:00,
2013-10-29 17:53:00,56.0,47.0,-100.00,East,101,6.0,12.0,73,0.00,,,0.00,52.000000,,2013-10-29 22:53:00,
2013-10-29 18:03:00,56.0,47.0,-100.00,East,101,6.0,12.0,73,0.00,,,0.00,52.000000,,2013-10-29 23:03:00,
2013-10-29 18:43:00,56.0,49.0,-100.00,East,101,5.0,15.0,76,0.00,,,0.00,19.000000,,2013-10-29 23:43:00,
2013-10-29 18:53:00,56.0,49.0,-100.00,East,101,5.0,15.0,76,0.00,,,0.00,19.000000,,2013-10-29 23:53:00,
2013-10-29 19:02:00,56.0,49.0,-100.00,East,101,5.0,15.0,76,0.00,,,0.00,19.000000,,2013-10-30 00:02:00,
2013-10-29 19:42:00,54.0,52.0,-100.00,ESE,114,4.0,12.0,94,0.00,,,0.00,0.000000,,2013-10-30 00:42:00,
2013-10-29 19:52:00,54.0,52.0,-100.00,ESE,114,4.0,12.0,94,0.00,,,0.00,0.000000,,2013-10-30 00:52:00,
2013-10-29 20:01:00,54.0,52.0,-100.00,ESE,114,4.0,12.0,94,0.00,,,0.00,0.000000,,2013-10-30 01:01:00,
2013-10-29 20:42:00,54.0,53.0,-100.00,ESE,102,5.0,11.0,96,0.00,,,-99.99,0.000000,,2013-10-30 01:42:00,
2013-10-29 20:52:00,54.0,53.0,-100.00,ESE,102,5.0,11.0,96,0.00,,,-99.99,0.000000,,2013-10-30 01:52:00,
2013-10-29 21:02:00,54.0,53.0,-100.00,ESE,102,5.0,11.0,96,0.00,,,-99.99,0.000000,,2013-10-30 02:02:00,
2013-10-29 21:42:00,52.0,52.0,-100.00,ESE,113,5.0,11.0,99,0.00,,,0.00,0.000000,,2013-10-30 02:42:00,
2013-10-29 21:52:00,52.0,52.0,-100.00,ESE,113,5.0,11.0,99,0.00,,,0.00,0.000000,,2013-10-30 02:52:00,
2013-10-29 22:02:00,52.0,52.0,-100.00,ESE,113,5.0,11.0,99,0.00,,,0.00,0.000000,,2013-10-30 03:02:00,
2013-10-29 22:44:00,51.0,51.0,-100.00,ESE,109,5.0,12.0,100,0.00,,,0.00,0.000000,,2013-10-30 03:44:00,
2013-10-29 22:54:00,51.0,51.0,-100.00,ESE,109,5.0,12.0,100,0.00,,,0.00,0.000000,,2013-10-30 03:54:00,
2013-10-29 23:03:00,51.0,51.0,-100.00,ESE,109,5.0,12.0,100,0.00,,,0.00,0.000000,,2013-10-30 04:03:00,
2013-10-29 23:44:00,52.0,52.0,-100.00,ESE,113,4.0,11.0,100,0.00,,,0.00,0.000000,,2013-10-30 04:44:00,
2013-10-29 23:53:00,52.0,52.0,-100.00,ESE,113,4.0,11.0,100,0.00,,,0.00,0.000000,,2013-10-30 04:53:00,